Time;durP1;ratioP1;P1;durP2;ratioP2;P2;SDS_P1;SDS_P2;PMS_P1;PMS_P2;Temp;Humidity;BMP_temperature;BMP_pressure;BME280_temperature;BME280_humidity;BME280_pressure;Samples;Min_cycle;Max_cycle;Signal;HPM_P1;HPM_P2
2022/07/29 00:02:09;;;;;;;4.50;2.22;;;21.50;83.30;;;;;;5061330;28;20052;-71
2022/07/29 00:04:36;;;;;;;4.90;1.85;;;21.40;83.30;;;;;;5094850;27;20145;-71
2022/07/29 00:07:02;;;;;;;4.72;2.03;;;21.40;83.30;;;;;;5063895;28;20045;-70
2022/07/29 00:09:28;;;;;;;4.20;1.63;;;21.40;83.40;;;;;;5063961;28;20032;-71
2022/07/29 00:11:56;;;;;;;4.82;2.33;;;21.40;83.60;;;;;;5064830;28;20037;-70
2022/07/29 00:14:22;;;;;;;2.35;1.08;;;21.30;83.60;;;;;;5062520;28;20041;-71
2022/07/29 00:16:48;;;;;;;2.25;1.58;;;21.40;83.80;;;;;;5060683;28;20079;-71
2022/07/29 00:19:13;;;;;;;3.25;1.73;;;21.30;83.80;;;;;;5060381;28;20041;-71
2022/07/29 00:21:39;;;;;;;4.65;1.38;;;21.30;84.00;;;;;;5062802;28;20040;-71
2022/07/29 00:24:05;;;;;;;4.00;2.08;;;21.30;84.10;;;;;;5059338;28;20048;-71
2022/07/29 00:26:31;;;;;;;2.70;1.48;;;21.30;84.10;;;;;;5060315;28;20037;-71
2022/07/29 00:28:58;;;;;;;3.58;1.63;;;21.30;84.00;;;;;;5063146;28;20051;-71
2022/07/29 00:31:24;;;;;;;2.33;1.50;;;21.20;84.00;;;;;;5061049;28;20036;-71
2022/07/29 00:33:50;;;;;;;2.90;1.83;;;21.20;84.10;;;;;;5059376;28;20051;-71
2022/07/29 00:36:16;;;;;;;4.65;1.70;;;21.20;84.10;;;;;;5055568;28;20499;-71
2022/07/29 00:38:44;;;;;;;2.92;2.25;;;21.20;84.30;;;;;;5062399;28;20165;-71
2022/07/29 00:41:11;;;;;;;3.03;1.65;;;21.10;84.40;;;;;;5059159;28;20037;-71
2022/07/29 00:43:37;;;;;;;3.70;1.58;;;21.10;84.50;;;;;;5061425;28;20600;-71
2022/07/29 00:46:03;;;;;;;1.70;1.40;;;21.10;84.70;;;;;;5063970;28;20045;-71
2022/07/29 00:48:29;;;;;;;4.72;1.80;;;21.10;84.80;;;;;;5061017;28;20490;-71
2022/07/29 00:50:57;;;;;;;2.42;1.33;;;21.10;85.00;;;;;;5061769;28;20048;-71
2022/07/29 00:53:24;;;;;;;4.97;1.80;;;21.10;85.00;;;;;;5063084;28;20043;-70
2022/07/29 00:55:50;;;;;;;2.25;1.50;;;21.10;85.00;;;;;;5060025;28;20474;-71
2022/07/29 00:58:16;;;;;;;2.05;1.77;;;21.00;85.00;;;;;;5059349;28;20033;-71
2022/07/29 01:00:42;;;;;;;3.25;1.65;;;21.10;85.10;;;;;;5074423;28;20863;-71
2022/07/29 01:03:08;;;;;;;2.88;1.50;;;21.00;85.10;;;;;;5062401;28;20036;-71
2022/07/29 01:05:35;;;;;;;4.47;2.30;;;21.10;85.30;;;;;;5062669;28;20049;-71
2022/07/29 01:08:02;;;;;;;2.83;1.58;;;21.10;85.40;;;;;;5061455;28;20057;-70
2022/07/29 01:10:29;;;;;;;2.65;1.38;;;21.10;85.60;;;;;;5060252;28;20075;-70
2022/07/29 01:12:58;;;;;;;3.03;1.40;;;21.10;85.50;;;;;;5060442;28;20040;-71
2022/07/29 01:15:24;;;;;;;4.78;1.38;;;21.10;85.40;;;;;;5058261;28;20071;-70
2022/07/29 01:18:01;;;;;;;3.45;1.80;;;21.10;85.30;;;;;;5060845;28;20041;-71
2022/07/29 01:20:34;;;;;;;3.92;1.75;;;21.10;85.20;;;;;;5065391;28;20045;-70
2022/07/29 01:23:00;;;;;;;3.10;1.73;;;21.10;85.20;;;;;;5095347;27;20712;-70
2022/07/29 01:25:31;;;;;;;4.70;1.52;;;21.10;85.20;;;;;;5059206;28;20052;-71
2022/07/29 01:28:24;;;;;;;2.13;1.48;;;21.10;85.20;;;;;;5062227;28;20044;-70
2022/07/29 01:30:52;;;;;;;2.92;1.50;;;21.10;85.50;;;;;;5060605;28;20088;-70
2022/07/29 01:36:13;;;;;;;2.30;1.30;;;21.00;85.40;;;;;;5059653;28;20044;-71
2022/07/29 01:38:42;;;;;;;3.15;1.60;;;21.00;85.40;;;;;;5089243;27;20068;-71
2022/07/29 01:41:14;;;;;;;2.47;1.55;;;20.90;85.40;;;;;;5059515;28;20083;-70
2022/07/29 01:43:55;;;;;;;;;;;20.90;85.50;;;;;;5063644;28;20045;-71
2022/07/29 01:46:31;;;;;;;3.92;1.65;;;20.90;85.60;;;;;;5059605;28;20420;-71
2022/07/29 01:49:06;;;;;;;5.97;2.40;;;20.80;85.70;;;;;;5061554;28;20135;-70
2022/07/29 01:51:40;;;;;;;2.92;1.60;;;20.80;86.40;;;;;;5076693;28;20048;-70
2022/07/29 01:54:30;;;;;;;4.07;1.95;;;20.80;86.10;;;;;;5057575;28;20041;-70
2022/07/29 01:56:58;;;;;;;3.30;1.58;;;20.80;86.40;;;;;;5057697;28;20059;-70
2022/07/29 01:59:25;;;;;;;5.97;1.63;;;20.70;86.40;;;;;;5077245;28;20447;-70
2022/07/29 02:01:53;;;;;;;4.63;1.42;;;20.70;86.50;;;;;;5057530;28;20514;-70
2022/07/29 02:04:20;;;;;;;2.35;1.45;;;20.70;86.60;;;;;;5060680;28;20534;-70
2022/07/29 02:06:50;;;;;;;8.98;2.35;;;20.60;86.70;;;;;;5093771;27;20088;-70
2022/07/29 02:09:16;;;;;;;2.78;1.50;;;20.60;86.90;;;;;;5061838;28;20045;-71
2022/07/29 02:11:47;;;;;;;7.35;1.88;;;20.70;87.10;;;;;;5060570;28;20159;-71
2022/07/29 02:14:15;;;;;;;2.83;1.92;;;20.60;87.10;;;;;;5059783;28;20504;-70
2022/07/29 02:16:41;;;;;;;3.90;1.50;;;20.60;87.20;;;;;;5059307;28;20538;-70
2022/07/29 02:19:09;;;;;;;3.78;1.40;;;20.60;87.20;;;;;;5057558;28;20044;-70
2022/07/29 02:21:35;;;;;;;4.30;1.85;;;20.60;87.80;;;;;;5059468;28;20044;-70
2022/07/29 02:24:04;;;;;;;2.60;1.75;;;20.50;87.30;;;;;;5059084;28;20040;-71
2022/07/29 02:26:32;;;;;;;3.10;1.52;;;20.50;87.40;;;;;;5056225;28;20037;-70
2022/07/29 02:29:00;;;;;;;4.40;1.48;;;20.50;87.50;;;;;;5061067;28;20549;-70
2022/07/29 02:31:31;;;;;;;4.57;1.83;;;20.40;87.70;;;;;;5058216;28;20048;-71
2022/07/29 02:33:58;;;;;;;2.97;2.00;;;20.40;87.60;;;;;;5057622;28;20051;-70
2022/07/29 02:36:26;;;;;;;6.65;1.65;;;20.40;87.60;;;;;;5056259;28;20045;-71
2022/07/29 02:38:57;;;;;;;3.55;1.55;;;20.40;87.60;;;;;;5043815;28;20465;-70
2022/07/29 02:41:44;;;;;;;5.53;2.38;;;20.40;87.60;;;;;;5058725;28;20297;-71
2022/07/29 02:44:12;;;;;;;3.22;1.75;;;20.30;87.60;;;;;;5057647;28;20049;-71
2022/07/29 02:46:45;;;;;;;3.35;1.88;;;20.30;87.60;;;;;;5057410;28;20037;-70
2022/07/29 02:49:34;;;;;;;4.47;1.70;;;20.30;87.70;;;;;;5061769;28;21247;-71
2022/07/29 02:52:39;;;;;;;5.13;1.85;;;20.30;87.70;;;;;;5059630;28;20044;-71
2022/07/29 02:55:31;;;;;;;2.22;1.45;;;20.30;87.50;;;;;;5057236;28;20055;-70
2022/07/29 02:58:13;;;;;;;5.13;2.03;;;20.40;87.40;;;;;;5060455;28;20120;-71
2022/07/29 03:00:40;;;;;;;2.97;1.70;;;20.40;87.40;;;;;;5077005;28;20041;-71
2022/07/29 03:03:12;;;;;;;3.38;1.75;;;20.40;87.40;;;;;;5060349;28;20041;-71
2022/07/29 03:05:39;;;;;;;3.60;1.55;;;20.40;87.40;;;;;;5062138;28;20805;-71
2022/07/29 03:08:06;;;;;;;5.32;2.38;;;20.40;87.30;;;;;;5059416;28;20052;-71
2022/07/29 03:10:33;;;;;;;3.95;1.67;;;20.40;87.20;;;;;;5058839;28;20071;-70
2022/07/29 03:13:00;;;;;;;5.95;1.90;;;20.40;87.30;;;;;;5059739;28;20042;-71
2022/07/29 03:15:27;;;;;;;5.95;1.63;;;20.40;87.20;;;;;;5057809;28;20041;-70
2022/07/29 03:17:55;;;;;;;9.73;1.95;;;20.40;87.10;;;;;;5057357;28;20041;-70
2022/07/29 03:20:21;;;;;;;4.47;2.80;;;20.40;87.10;;;;;;5059909;28;20515;-71
2022/07/29 03:22:47;;;;;;;2.83;1.67;;;20.40;87.10;;;;;;5061158;28;20045;-70
2022/07/29 03:25:15;;;;;;;3.30;1.60;;;20.40;87.20;;;;;;5059278;28;20049;-71
2022/07/29 03:27:41;;;;;;;2.55;1.50;;;20.40;87.20;;;;;;5057951;28;20043;-70
2022/07/29 03:30:08;;;;;;;7.68;2.17;;;20.40;87.10;;;;;;5058049;28;20040;-72
2022/07/29 03:32:34;;;;;;;3.88;1.85;;;20.40;87.00;;;;;;5054896;28;20033;-71
2022/07/29 03:35:00;;;;;;;4.03;2.08;;;20.40;87.10;;;;;;5092354;27;20033;-71
2022/07/29 03:37:26;;;;;;;4.15;2.17;;;20.40;87.20;;;;;;5062573;28;20049;-71
2022/07/29 03:39:55;;;;;;;3.67;1.85;;;20.40;87.20;;;;;;5061359;28;20496;-71
2022/07/29 03:42:25;;;;;;;3.03;1.90;;;20.40;87.20;;;;;;5063938;28;20083;-71
2022/07/29 03:44:52;;;;;;;2.63;2.10;;;20.40;87.10;;;;;;5064317;28;20076;-72
2022/07/29 03:47:22;;;;;;;5.97;2.08;;;20.40;87.00;;;;;;5059246;28;20044;-71
2022/07/29 03:49:51;;;;;;;7.00;2.47;;;20.40;87.00;;;;;;5061671;28;20049;-71
2022/07/29 03:52:17;;;;;;;7.70;2.75;;;20.40;86.90;;;;;;5061923;28;20088;-71
2022/07/29 03:54:43;;;;;;;5.63;2.08;;;20.40;86.80;;;;;;5062739;28;20063;-71
2022/07/29 03:57:11;;;;;;;5.57;2.00;;;20.40;86.80;;;;;;5062345;28;20052;-70
2022/07/29 03:59:37;;;;;;;3.72;1.83;;;20.40;86.80;;;;;;5060823;28;20036;-71
2022/07/29 04:02:05;;;;;;;3.45;2.13;;;20.40;86.80;;;;;;5063889;28;20048;-71
2022/07/29 04:04:35;;;;;;;9.10;1.83;;;20.30;86.70;;;;;;5062638;28;20041;-71
2022/07/29 04:07:01;;;;;;;8.65;2.78;;;20.30;86.70;;;;;;5062266;28;20048;-70
2022/07/29 04:09:26;;;;;;;8.48;2.15;;;20.30;86.70;;;;;;5060739;28;20763;-71
2022/07/29 04:11:53;;;;;;;4.43;1.67;;;20.20;86.80;;;;;;5062243;28;20098;-71
2022/07/29 04:14:20;;;;;;;3.83;2.00;;;20.20;86.90;;;;;;5060713;28;20222;-71
2022/07/29 04:16:46;;;;;;;3.92;1.88;;;20.20;87.00;;;;;;5094760;27;20051;-71
2022/07/29 04:19:12;;;;;;;6.07;1.70;;;20.20;87.10;;;;;;5061042;28;20067;-71
2022/07/29 04:21:39;;;;;;;4.22;1.95;;;20.20;87.10;;;;;;5062602;28;20044;-70
2022/07/29 04:24:05;;;;;;;4.28;2.28;;;20.10;87.10;;;;;;5078005;28;20049;-70
2022/07/29 04:26:31;;;;;;;3.85;2.40;;;20.10;87.30;;;;;;5064136;28;20036;-71
2022/07/29 04:28:57;;;;;;;4.40;2.50;;;20.10;87.40;;;;;;5063601;28;20048;-71
2022/07/29 04:31:22;;;;;;;3.88;1.83;;;20.10;87.50;;;;;;5062620;28;20047;-71
2022/07/29 04:33:48;;;;;;;4.13;2.05;;;20.10;87.60;;;;;;5063878;28;20064;-71
2022/07/29 04:36:14;;;;;;;10.55;2.42;;;20.10;87.80;;;;;;5059223;28;20076;-70
2022/07/29 04:38:40;;;;;;;8.80;2.25;;;20.10;87.80;;;;;;5062033;28;20037;-71
2022/07/29 04:41:06;;;;;;;9.23;2.30;;;20.10;87.80;;;;;;5060111;28;20045;-70
2022/07/29 04:43:33;;;;;;;21.10;4.32;;;20.10;87.80;;;;;;5053633;28;20056;-71
2022/07/29 04:46:00;;;;;;;12.23;3.47;;;20.10;87.90;;;;;;5059628;28;20044;-70
2022/07/29 04:48:26;;;;;;;8.65;2.63;;;20.10;87.80;;;;;;5060834;28;20052;-70
2022/07/29 04:50:52;;;;;;;6.38;3.13;;;20.10;87.90;;;;;;5060960;28;20538;-71
2022/07/29 04:53:18;;;;;;;3.67;2.10;;;20.10;88.10;;;;;;5091261;27;20052;-70
2022/07/29 04:55:44;;;;;;;7.53;2.63;;;20.10;88.10;;;;;;5058136;28;20040;-70
2022/07/29 04:58:10;;;;;;;5.15;1.75;;;20.10;88.10;;;;;;5060374;28;20041;-71
2022/07/29 05:00:36;;;;;;;9.95;2.63;;;20.10;88.10;;;;;;5056341;28;20041;-71
2022/07/29 05:03:03;;;;;;;4.03;1.92;;;20.10;88.30;;;;;;5060049;28;20036;-71
2022/07/29 05:05:29;;;;;;;6.38;1.90;;;20.10;88.30;;;;;;5063684;28;20477;-71
2022/07/29 05:07:55;;;;;;;3.28;2.10;;;20.10;88.30;;;;;;5062698;28;20057;-70
2022/07/29 05:10:21;;;;;;;7.10;2.15;;;20.10;88.40;;;;;;5055596;28;20124;-71
2022/07/29 05:12:46;;;;;;;5.38;2.45;;;20.10;88.40;;;;;;5061010;28;20067;-71
2022/07/29 05:15:12;;;;;;;10.20;3.15;;;20.10;88.50;;;;;;5064053;28;20542;-71
2022/07/29 05:17:38;;;;;;;6.97;2.17;;;20.10;88.70;;;;;;5061193;28;20115;-71
2022/07/29 05:20:05;;;;;;;19.13;3.83;;;20.20;88.80;;;;;;5064043;28;20049;-71
2022/07/29 05:22:31;;;;;;;10.60;2.50;;;20.20;88.70;;;;;;5064247;28;20494;-70
2022/07/29 05:24:56;;;;;;;6.50;2.63;;;20.20;88.80;;;;;;5062229;28;20072;-70
2022/07/29 05:27:22;;;;;;;4.32;2.47;;;20.20;88.70;;;;;;5062134;28;20041;-71
2022/07/29 05:29:48;;;;;;;11.85;2.78;;;20.20;88.60;;;;;;5059593;28;20045;-75
2022/07/29 05:32:14;;;;;;;6.82;2.70;;;20.20;88.60;;;;;;5045651;28;20052;-75
2022/07/29 05:34:41;;;;;;;5.93;2.80;;;20.30;88.50;;;;;;5077499;28;20033;-74
2022/07/29 05:37:06;;;;;;;8.02;3.00;;;20.30;88.40;;;;;;5060823;28;20036;-75
2022/07/29 05:39:32;;;;;;;9.80;3.63;;;20.30;88.30;;;;;;5058045;28;20145;-75
2022/07/29 05:41:58;;;;;;;8.57;3.33;;;20.30;88.20;;;;;;5059506;28;20045;-75
2022/07/29 05:44:24;;;;;;;8.52;3.47;;;20.30;88.20;;;;;;5056717;28;20048;-76
2022/07/29 05:46:49;;;;;;;10.68;4.00;;;20.40;88.20;;;;;;5060595;28;20040;-76
2022/07/29 05:49:15;;;;;;;8.38;2.55;;;20.40;88.00;;;;;;5061422;28;20045;-75
2022/07/29 05:51:41;;;;;;;9.23;3.13;;;20.40;88.00;;;;;;5056440;28;20523;-75
2022/07/29 05:54:07;;;;;;;3.72;2.30;;;20.40;88.00;;;;;;5063363;28;20068;-76
2022/07/29 05:56:32;;;;;;;6.63;2.65;;;20.30;87.90;;;;;;5063424;28;20045;-77
2022/07/29 05:58:58;;;;;;;10.10;3.65;;;20.30;87.90;;;;;;5058080;28;20048;-76
2022/07/29 06:01:24;;;;;;;24.50;3.90;;;20.30;88.00;;;;;;5060584;28;20041;-76
2022/07/29 06:03:50;;;;;;;13.50;3.67;;;20.30;88.10;;;;;;5060270;28;20140;-76
2022/07/29 06:06:15;;;;;;;6.40;2.70;;;20.30;88.00;;;;;;5060913;28;20044;-76
2022/07/29 06:08:41;;;;;;;7.65;2.25;;;20.30;88.00;;;;;;5059360;28;20053;-76
2022/07/29 06:11:08;;;;;;;5.65;2.53;;;20.30;88.10;;;;;;5077945;28;20045;-76
2022/07/29 06:13:34;;;;;;;7.18;2.50;;;20.40;88.20;;;;;;5088820;27;20041;-76
2022/07/29 06:16:00;;;;;;;6.72;2.28;;;20.40;88.10;;;;;;5059471;28;20098;-75
2022/07/29 06:18:25;;;;;;;8.10;2.58;;;20.40;88.10;;;;;;5061867;28;20041;-81
2022/07/29 06:20:51;;;;;;;5.18;2.55;;;20.50;88.20;;;;;;5059988;28;21144;-74
2022/07/29 06:23:18;;;;;;;7.40;2.33;;;20.50;88.20;;;;;;5057781;28;20075;-74
2022/07/29 06:25:44;;;;;;;6.63;2.30;;;20.60;88.20;;;;;;5059172;28;20032;-74
2022/07/29 06:28:09;;;;;;;3.92;2.72;;;20.70;88.20;;;;;;5056968;28;20127;-74
2022/07/29 06:30:35;;;;;;;4.95;2.60;;;20.80;88.20;;;;;;5061307;28;20056;-74
2022/07/29 06:33:01;;;;;;;7.75;2.47;;;20.90;88.20;;;;;;5058500;28;20595;-73
2022/07/29 06:35:28;;;;;;;5.20;2.70;;;21.10;88.20;;;;;;5075555;28;20139;-74
2022/07/29 06:37:53;;;;;;;5.18;2.50;;;21.20;88.20;;;;;;5061200;28;20574;-74
2022/07/29 06:43:04;;;;;;;6.68;2.78;;;21.30;87.90;;;;;;5061739;28;20044;-74
2022/07/29 06:45:33;;;;;;;5.32;2.47;;;21.30;87.60;;;;;;5091024;27;20041;-73
2022/07/29 06:47:59;;;;;;;6.53;2.58;;;21.40;87.50;;;;;;5061419;28;20044;-73
2022/07/29 06:50:25;;;;;;;5.10;2.45;;;21.30;87.20;;;;;;5093687;27;20554;-73
2022/07/29 06:52:51;;;;;;;5.93;2.65;;;21.30;87.10;;;;;;5062050;28;20088;-73
2022/07/29 06:55:19;;;;;;;13.05;2.78;;;21.30;87.20;;;;;;5059573;28;20556;-73
2022/07/29 06:57:45;;;;;;;8.00;2.97;;;21.30;87.20;;;;;;5062984;28;20037;-73
2022/07/29 07:00:11;;;;;;;10.13;3.45;;;21.30;87.00;;;;;;5039715;28;20431;-74
2022/07/29 07:02:37;;;;;;;9.05;2.58;;;21.30;87.00;;;;;;5059266;28;20071;-73
2022/07/29 07:05:05;;;;;;;5.55;2.17;;;21.30;87.00;;;;;;5045137;28;20052;-74
2022/07/29 07:07:30;;;;;;;5.43;2.83;;;21.30;86.90;;;;;;5092591;27;20060;-71
2022/07/29 07:09:56;;;;;;;7.32;1.98;;;21.30;86.90;;;;;;5061785;28;20123;-72
2022/07/29 07:12:22;;;;;;;6.18;2.88;;;21.30;86.90;;;;;;5065149;28;20040;-72
2022/07/29 07:14:48;;;;;;;10.40;2.83;;;21.40;86.90;;;;;;5061872;28;20449;-72
2022/07/29 07:17:13;;;;;;;9.43;2.60;;;21.50;86.80;;;;;;5060792;28;20118;-73
2022/07/29 07:19:39;;;;;;;7.32;2.75;;;21.50;86.70;;;;;;5058781;28;21857;-72
2022/07/29 07:22:05;;;;;;;11.20;2.83;;;21.60;86.70;;;;;;5066090;28;20045;-72
2022/07/29 07:24:31;;;;;;;10.60;2.42;;;21.60;86.80;;;;;;5063950;28;20082;-72
2022/07/29 07:26:57;;;;;;;6.60;1.63;;;21.60;86.70;;;;;;5064178;28;20115;-72
2022/07/29 07:29:23;;;;;;;7.05;2.13;;;21.70;86.70;;;;;;5045232;28;20076;-73
2022/07/29 07:31:48;;;;;;;7.32;2.33;;;21.70;86.70;;;;;;5058674;28;20720;-73
2022/07/29 07:34:14;;;;;;;4.65;1.88;;;21.80;86.90;;;;;;5060029;28;20138;-73
2022/07/29 07:36:40;;;;;;;8.63;2.97;;;21.80;87.00;;;;;;5062421;28;20117;-73
2022/07/29 07:39:06;;;;;;;6.20;2.28;;;21.90;87.20;;;;;;5063214;28;20055;-73
2022/07/29 07:41:32;;;;;;;5.40;2.35;;;21.90;87.10;;;;;;5089516;27;20123;-73
2022/07/29 07:43:58;;;;;;;6.03;2.58;;;22.00;86.90;;;;;;5059659;28;20525;-72
2022/07/29 07:46:24;;;;;;;5.65;2.38;;;22.10;86.90;;;;;;5076117;28;20067;-73
2022/07/29 07:48:51;;;;;;;6.90;2.92;;;22.20;87.00;;;;;;5062041;28;20075;-73
2022/07/29 07:51:18;;;;;;;4.07;1.98;;;22.20;86.90;;;;;;5063329;28;20483;-73
2022/07/29 07:53:44;;;;;;;7.47;3.03;;;22.30;86.90;;;;;;5059547;28;20041;-73
2022/07/29 07:56:10;;;;;;;10.57;2.10;;;22.30;86.80;;;;;;5061663;28;20041;-72
2022/07/29 07:58:36;;;;;;;3.55;2.17;;;22.30;86.70;;;;;;5063301;28;20052;-73
2022/07/29 08:01:02;;;;;;;6.78;3.25;;;22.40;86.70;;;;;;5060335;28;20698;-73
2022/07/29 08:03:27;;;;;;;3.38;1.73;;;22.40;86.70;;;;;;5061994;28;20045;-73
2022/07/29 08:05:54;;;;;;;8.02;3.25;;;22.60;86.70;;;;;;5094525;27;20045;-73
2022/07/29 08:08:20;;;;;;;8.50;2.30;;;22.60;86.50;;;;;;5060247;28;20140;-73
2022/07/29 08:10:51;;;;;;;8.57;2.75;;;22.70;86.20;;;;;;5057825;28;20033;-73
2022/07/29 08:13:18;;;;;;;8.15;2.50;;;22.70;86.10;;;;;;5063018;28;20049;-73
2022/07/29 08:15:45;;;;;;;3.47;2.45;;;22.70;86.20;;;;;;5059977;28;20604;-72
2022/07/29 08:18:14;;;;;;;4.38;2.00;;;22.60;86.10;;;;;;5059881;28;20580;-73
2022/07/29 08:20:40;;;;;;;7.90;2.08;;;22.60;86.10;;;;;;5062725;28;20048;-72
2022/07/29 08:23:08;;;;;;;5.82;2.03;;;22.50;86.00;;;;;;5057270;28;20861;-72
2022/07/29 08:25:36;;;;;;;7.70;2.42;;;22.60;86.10;;;;;;5057067;28;20056;-72
2022/07/29 08:28:02;;;;;;;5.10;1.85;;;22.60;86.00;;;;;;5057368;28;20578;-73
2022/07/29 08:30:28;;;;;;;7.20;2.40;;;22.70;85.80;;;;;;5060811;28;20044;-72
2022/07/29 08:32:54;;;;;;;6.05;2.03;;;22.70;85.40;;;;;;5060678;28;20486;-72
2022/07/29 08:35:21;;;;;;;4.78;2.20;;;22.70;85.30;;;;;;5060451;28;20682;-73
2022/07/29 08:37:47;;;;;;;4.63;1.63;;;22.70;85.20;;;;;;5058636;28;20103;-73
2022/07/29 08:40:13;;;;;;;5.32;1.85;;;22.60;84.80;;;;;;5063192;28;20049;-73
2022/07/29 08:42:39;;;;;;;2.70;1.48;;;22.60;84.60;;;;;;5058712;28;20946;-72
2022/07/29 08:45:06;;;;;;;5.82;2.22;;;22.60;84.70;;;;;;5061261;28;20049;-73
2022/07/29 08:47:33;;;;;;;4.55;1.58;;;22.50;84.80;;;;;;5061058;28;20676;-73
2022/07/29 08:49:59;;;;;;;9.93;2.33;;;22.50;84.80;;;;;;5093593;27;20044;-73
2022/07/29 08:52:26;;;;;;;2.35;1.42;;;22.40;84.80;;;;;;5058593;28;20033;-73
2022/07/29 08:54:53;;;;;;;5.95;2.20;;;22.40;84.70;;;;;;5061366;28;20049;-73
2022/07/29 08:57:21;;;;;;;6.10;2.05;;;22.30;84.40;;;;;;5061047;28;20085;-73
2022/07/29 08:59:48;;;;;;;3.53;1.73;;;22.30;84.50;;;;;;5063183;28;20048;-72
2022/07/29 09:02:21;;;;;;;4.10;1.42;;;22.30;84.50;;;;;;5055590;28;20048;-73
2022/07/29 09:04:48;;;;;;;4.28;1.42;;;22.10;84.10;;;;;;5060546;28;20067;-72
2022/07/29 09:07:18;;;;;;;6.53;1.55;;;22.10;84.10;;;;;;5061274;28;20646;-73
2022/07/29 09:09:44;;;;;;;2.70;1.70;;;22.10;84.10;;;;;;5059387;28;20047;-73
2022/07/29 09:12:13;;;;;;;8.45;1.83;;;22.10;84.20;;;;;;5057113;28;20041;-72
2022/07/29 09:14:39;;;;;;;7.68;1.90;;;22.10;84.10;;;;;;5056526;28;20037;-73
2022/07/29 09:17:06;;;;;;;5.28;1.67;;;22.00;84.10;;;;;;5092080;27;20841;-73
2022/07/29 09:19:34;;;;;;;8.68;2.17;;;22.10;84.20;;;;;;5058562;28;20530;-73
2022/07/29 09:22:04;;;;;;;10.35;2.28;;;22.10;84.00;;;;;;5059985;28;20044;-73
2022/07/29 09:24:43;;;;;;;8.35;3.55;;;22.10;83.90;;;;;;5060450;28;20496;-73
2022/07/29 09:27:25;;;;;;;6.53;2.55;;;22.10;83.70;;;;;;5059319;28;20053;-73
2022/07/29 09:29:58;;;;;;;;;;;22.10;83.60;;;;;;5060370;28;20052;-72
2022/07/29 09:32:24;;;;;;;8.93;2.50;;;22.20;83.80;;;;;;5060375;28;19920;-73
2022/07/29 09:34:50;;;;;;;8.80;2.78;;;22.20;83.80;;;;;;5074964;28;21340;-73
2022/07/29 09:37:28;;;;;;;6.00;2.03;;;22.20;83.70;;;;;;5059036;28;20049;-78
2022/07/29 09:39:54;;;;;;;2.85;1.98;;;22.30;83.40;;;;;;5058438;28;20041;-74
2022/07/29 09:42:32;;;;;;;5.32;1.75;;;22.30;83.50;;;;;;5062380;28;20068;-75
2022/07/29 09:44:58;;;;;;;6.03;1.90;;;22.30;83.40;;;;;;5058315;28;20040;-78
2022/07/29 09:47:41;;;;;;;5.55;2.15;;;22.30;83.40;;;;;;5056535;28;20048;-74
2022/07/29 09:50:07;;;;;;;7.63;2.10;;;22.30;83.30;;;;;;5090891;27;20037;-74
2022/07/29 09:52:48;;;;;;;4.95;1.50;;;22.30;83.30;;;;;;5058427;28;20047;-75
2022/07/29 09:55:15;;;;;;;5.70;1.73;;;22.40;83.20;;;;;;5058724;28;20777;-74
2022/07/29 09:57:40;;;;;;;3.72;2.28;;;22.40;83.20;;;;;;5060144;28;20271;-75
2022/07/29 10:00:16;;;;;;;6.63;1.80;;;22.40;83.10;;;;;;5056602;28;20072;-74
2022/07/29 10:02:43;;;;;;;2.42;1.58;;;22.50;82.90;;;;;;5059042;28;20040;-75
2022/07/29 10:05:24;;;;;;;3.95;1.42;;;22.50;82.80;;;;;;5058228;28;20943;-74
2022/07/29 10:07:56;;;;;;;5.97;1.95;;;22.60;82.20;;;;;;5057066;28;20442;-74
2022/07/29 10:10:27;;;;;;;4.53;1.60;;;22.50;82.10;;;;;;5074384;28;20873;-75
2022/07/29 10:12:56;;;;;;;2.45;1.27;;;;;;;;;;5058446;28;20139;-75
2022/07/29 10:15:23;;;;;;;2.33;1.33;;;;;;;;;;5091623;27;20422;-75
2022/07/29 10:17:50;;;;;;;3.15;1.63;;;;;;;;;;5059291;28;20769;-75
2022/07/29 10:20:16;;;;;;;6.95;1.80;;;;;;;;;;5057849;28;20051;-75
2022/07/29 10:22:43;;;;;;;2.88;1.38;;;;;;;;;;5061429;28;20095;-75
2022/07/29 10:25:10;;;;;;;4.18;1.30;;;;;;;;;;5062721;28;20914;-77
2022/07/29 10:27:37;;;;;;;3.70;1.45;;;;;;;;;;5059796;28;20047;-80
2022/07/29 10:30:04;;;;;;;4.93;2.90;;;;;;;;;;5093907;27;20041;-81
2022/07/29 10:32:49;;;;;;;3.30;1.35;;;;;;;;;;5065635;28;20048;-80
2022/07/29 10:35:15;;;;;;;5.65;1.70;;;;;;;;;;5063901;28;20049;-80
2022/07/29 10:37:52;;;;;;;4.05;2.13;;;;;;;;;;5092913;27;20598;-79
2022/07/29 10:43:10;;;;;;;1.75;1.15;;;;;;;;;;5059452;28;20589;-81
2022/07/29 10:45:37;;;;;;;4.35;2.17;;;;;;;;;;5058915;28;20079;-80
2022/07/29 10:48:05;;;;;;;7.32;2.25;;;;;;;;;;5059092;28;20049;-80
2022/07/29 10:50:51;;;;;;;4.20;1.80;;;;;;;;;;5090115;27;20037;-80
2022/07/29 10:53:17;;;;;;;3.13;1.65;;;;;;;;;;5058262;28;20845;-80
2022/07/29 10:55:46;;;;;;;6.20;1.52;;;;;;;;;;5060895;28;20041;-80
2022/07/29 10:58:13;;;;;;;2.55;1.58;;;;;;;;;;5094278;27;20044;-80
2022/07/29 11:00:39;;;;;;;4.15;1.52;;;;;;;;;;5060119;28;20041;-81
2022/07/29 11:03:05;;;;;;;1.80;1.25;;;;;;;;;;5060901;28;20501;-79
2022/07/29 11:05:52;;;;;;;2.42;1.38;;;;;;;;;;5092573;27;20037;-80
2022/07/29 11:08:21;;;;;;;2.63;1.70;;;;;;;;;;5060563;28;20131;-80
2022/07/29 11:11:06;;;;;;;4.72;1.70;;;;;;;;;;5094853;27;20068;-81
2022/07/29 11:13:54;;;;;;;2.58;1.35;;;;;;;;;;5045657;28;20044;-77
2022/07/29 11:16:25;;;;;;;3.20;1.38;;;;;;;;;;5042512;28;20039;-75
2022/07/29 11:19:10;;;;;;;3.60;1.40;;;;;;;;;;5059427;28;20044;-75
2022/07/29 11:21:36;;;;;;;5.68;1.30;;;;;;;;;;5056839;28;20044;-75
2022/07/29 11:24:13;;;;;;;1.70;1.35;;;;;;;;;;5052405;28;20056;-75
2022/07/29 11:26:39;;;;;;;3.05;1.27;;;;;;;;;;5092095;27;20056;-75
2022/07/29 11:29:05;;;;;;;7.38;1.88;;;;;;;;;;5058673;28;20079;-75
2022/07/29 11:31:34;;;;;;;1.83;1.15;;;;;;;;;;5090564;27;20613;-75
2022/07/29 11:34:17;;;;;;;5.25;1.98;;;;;;;;;;5086864;27;20043;-75
2022/07/29 11:37:02;;;;;;;3.58;1.33;;;;;;;;;;5059608;28;20047;-75
2022/07/29 11:39:29;;;;;;;4.45;1.90;;;;;;;;;;5061759;28;20049;-75
2022/07/29 11:42:15;;;;;;;3.40;1.38;;;;;;;;;;5060815;28;20049;-75
2022/07/29 11:44:54;;;;;;;4.50;1.25;;;;;;;;;;5061433;28;20853;-75
2022/07/29 11:47:21;;;;;;;5.47;1.25;;;;;;;;;;5089804;27;20047;-75
2022/07/29 11:49:48;;;;;;;3.60;2.28;;;;;;;;;;5059407;28;20431;-75
2022/07/29 11:52:14;;;;;;;3.05;1.65;;;;;;;;;;5058426;28;20952;-75
2022/07/29 11:54:42;;;;;;;2.80;1.25;;;;;;;;;;5056763;28;20045;-75
2022/07/29 11:57:08;;;;;;;2.58;1.25;;;;;;;;;;5056407;28;20167;-75
2022/07/29 11:59:42;;;;;;;5.38;1.70;;;;;;;;;;5062630;28;20720;-75
2022/07/29 12:02:08;;;;;;;4.00;1.20;;;;;;;;;;5058187;28;20048;-75
2022/07/29 12:04:48;;;;;;;3.25;1.20;;;;;;;;;;5063479;28;20036;-75
2022/07/29 12:07:14;;;;;;;4.03;1.42;;;;;;;;;;5058538;28;20929;-75
2022/07/29 12:09:40;;;;;;;3.20;1.27;;;;;;;;;;5058712;28;20581;-75
2022/07/29 12:12:07;;;;;;;2.40;1.27;;;;;;;;;;5057430;28;20037;-75
2022/07/29 12:14:33;;;;;;;3.13;1.33;;;;;;;;;;5042682;28;20053;-75
2022/07/29 12:17:00;;;;;;;2.88;1.30;;;;;;;;;;5056171;28;20548;-75
2022/07/29 12:19:27;;;;;;;2.47;1.42;;;;;;;;;;5062734;28;20049;-75
2022/07/29 12:21:54;;;;;;;5.07;1.63;;;;;;;;;;5084193;27;20527;-76
2022/07/29 12:24:21;;;;;;;2.55;1.58;;;;;;;;;;5060659;28;20067;-75
2022/07/29 12:26:54;;;;;;;2.13;1.38;;;;;;;;;;5045664;28;20099;-75
2022/07/29 12:29:21;;;;;;;2.67;1.10;;;;;;;;;;5090702;27;20049;-75
2022/07/29 12:31:53;;;;;;;4.00;1.35;;;;;;;;;;5062667;28;20040;-75
2022/07/29 12:34:20;;;;;;;1.98;1.10;;;;;;;;;;5060915;28;20482;-75
2022/07/29 12:36:47;;;;;;;3.22;1.20;;;;;;;;;;5062386;28;20123;-75
2022/07/29 12:39:13;;;;;;;2.42;1.25;;;;;;;;;;5074835;28;20072;-75
2022/07/29 12:41:39;;;;;;;1.55;1.00;;;;;;;;;;5060724;28;20779;-76
2022/07/29 12:44:05;;;;;;;1.30;0.98;;;;;;;;;;5061164;28;20045;-75
2022/07/29 12:46:31;;;;;;;3.25;1.40;;;;;;;;;;5060169;28;20602;-75
2022/07/29 12:48:58;;;;;;;4.93;1.58;;;;;;;;;;5060322;28;20053;-76
2022/07/29 12:51:34;;;;;;;2.42;1.27;;;;;;;;;;5057444;28;20151;-75
2022/07/29 12:54:04;;;;;;;1.45;1.15;;;;;;;;;;5060563;28;20048;-75
2022/07/29 12:56:30;;;;;;;2.08;1.20;;;;;;;;;;5061752;28;20054;-76
2022/07/29 12:58:56;;;;;;;4.10;1.30;;;;;;;;;;5057914;28;20077;-75
2022/07/29 13:01:22;;;;;;;4.82;1.30;;;;;;;;;;5055038;28;20045;-75
2022/07/29 13:03:53;;;;;;;2.97;1.40;;;;;;;;;;5056526;28;20602;-75
2022/07/29 13:06:32;;;;;;;3.03;1.52;;;;;;;;;;5059608;28;20062;-76
2022/07/29 13:09:04;;;;;;;3.78;1.40;;;;;;;;;;5061259;28;20061;-75
2022/07/29 13:11:31;;;;;;;4.82;1.52;;;;;;;;;;5094016;27;20036;-75
2022/07/29 13:13:58;;;;;;;2.65;1.40;;;;;;;;;;5057168;28;20048;-75
2022/07/29 13:16:24;;;;;;;1.92;1.42;;;;;;;;;;5060137;28;20172;-75
2022/07/29 13:19:03;;;;;;;7.50;2.05;;;;;;;;;;5059530;28;20037;-75
2022/07/29 13:21:29;;;;;;;2.50;1.02;;;;;;;;;;5059902;28;20073;-75
2022/07/29 13:23:55;;;;;;;3.10;1.90;;;;;;;;;;5057195;28;20041;-75
2022/07/29 13:26:21;;;;;;;2.53;1.23;;;;;;;;;;5096270;27;20621;-75
2022/07/29 13:28:48;;;;;;;2.10;1.17;;;;;;;;;;5063378;28;20535;-75